Kennard, Texas
Current Conditions -  °F | °C
As of 7:35 PM on Friday 19 Dec 2014 (Local Time) from KDKR Reporting Station
Overcast Overcast  
Wind Chill: 52°   Ceiling: 400
Heat Index: 52°   Visibility: NA
Dew Point: 52°   Wind: 8mph
Humidity: 100%   Direction: 20°NNE
Pressure: 30.17"   Gusts: NA
Location:  31.36°N, 95.18°W
Report Text: KDKR 200135Z AUTO 02007KT OVC004 11/11 A3017 RMK AO2
Loading
Personal Weather Stations






























Interactive Weather Map New forecast layout! Learn more

10-Day Weather Forecast

Advertisements
Track Severe Weather on mobile